sensor_id;sensor_type;location;lat;lon;timestamp;pressure;altitude;pressure_sealevel;temperature;humidity
6345;BME280;3205;42.666;23.264;2022-12-16T00:01:11;94145.13;;;5.23;100.00
6345;BME280;3205;42.666;23.264;2022-12-16T00:03:39;94143.47;;;5.35;100.00
6345;BME280;3205;42.666;23.264;2022-12-16T00:06:06;94152.41;;;5.34;100.00
6345;BME280;3205;42.666;23.264;2022-12-16T00:08:35;94143.66;;;5.39;100.00
6345;BME280;3205;42.666;23.264;2022-12-16T00:11:03;94138.84;;;5.32;100.00
6345;BME280;3205;42.666;23.264;2022-12-16T00:13:31;94141.63;;;5.36;100.00
6345;BME280;3205;42.666;23.264;2022-12-16T00:15:58;94142.38;;;5.28;100.00
6345;BME280;3205;42.666;23.264;2022-12-16T00:18:24;94141.19;;;5.42;100.00
6345;BME280;3205;42.666;23.264;2022-12-16T00:20:52;94156.13;;;5.42;100.00
6345;BME280;3205;42.666;23.264;2022-12-16T00:23:20;94141.59;;;5.27;100.00
6345;BME280;3205;42.666;23.264;2022-12-16T00:25:46;94136.06;;;5.29;100.00
6345;BME280;3205;42.666;23.264;2022-12-16T00:28:14;94142.69;;;5.35;100.00
6345;BME280;3205;42.666;23.264;2022-12-16T00:30:41;94130.97;;;5.32;100.00
6345;BME280;3205;42.666;23.264;2022-12-16T00:33:08;94138.53;;;5.34;100.00
6345;BME280;3205;42.666;23.264;2022-12-16T00:35:34;94132.69;;;5.37;100.00
6345;BME280;3205;42.666;23.264;2022-12-16T00:38:01;94144.97;;;5.19;100.00
6345;BME280;3205;42.666;23.264;2022-12-16T00:40:27;94146.53;;;5.20;100.00
6345;BME280;3205;42.666;23.264;2022-12-16T00:42:53;94134.97;;;5.21;100.00
6345;BME280;3205;42.666;23.264;2022-12-16T00:45:20;94143.13;;;5.20;100.00
6345;BME280;3205;42.666;23.264;2022-12-16T00:47:48;94122.78;;;5.17;100.00
6345;BME280;3205;42.666;23.264;2022-12-16T00:50:15;94154.50;;;5.15;100.00
6345;BME280;3205;42.666;23.264;2022-12-16T00:52:43;94132.19;;;5.18;100.00
6345;BME280;3205;42.666;23.264;2022-12-16T00:55:09;94142.84;;;5.21;100.00
6345;BME280;3205;42.666;23.264;2022-12-16T00:57:36;94126.94;;;5.18;100.00
6345;BME280;3205;42.666;23.264;2022-12-16T01:00:03;94124.28;;;5.10;100.00
6345;BME280;3205;42.666;23.264;2022-12-16T01:02:31;94111.22;;;5.18;100.00
6345;BME280;3205;42.666;23.264;2022-12-16T01:04:57;94133.34;;;4.95;100.00
6345;BME280;3205;42.666;23.264;2022-12-16T01:07:23;94126.28;;;5.04;100.00
6345;BME280;3205;42.666;23.264;2022-12-16T01:09:49;94136.47;;;5.06;100.00
6345;BME280;3205;42.666;23.264;2022-12-16T01:12:16;94131.06;;;5.02;100.00
6345;BME280;3205;42.666;23.264;2022-12-16T01:14:42;94141.69;;;5.06;100.00
6345;BME280;3205;42.666;23.264;2022-12-16T01:17:09;94126.63;;;5.11;100.00
6345;BME280;3205;42.666;23.264;2022-12-16T01:19:36;94150.19;;;5.11;100.00
6345;BME280;3205;42.666;23.264;2022-12-16T01:22:02;94148.97;;;5.09;100.00
6345;BME280;3205;42.666;23.264;2022-12-16T01:24:28;94116.00;;;5.16;100.00
6345;BME280;3205;42.666;23.264;2022-12-16T01:26:54;94136.47;;;5.06;100.00
6345;BME280;3205;42.666;23.264;2022-12-16T01:29:21;94105.34;;;5.04;100.00
6345;BME280;3205;42.666;23.264;2022-12-16T01:31:47;94138.59;;;5.04;100.00
6345;BME280;3205;42.666;23.264;2022-12-16T01:34:13;94110.25;;;5.06;100.00
6345;BME280;3205;42.666;23.264;2022-12-16T01:36:42;94114.44;;;5.07;100.00
6345;BME280;3205;42.666;23.264;2022-12-16T01:39:08;94106.09;;;5.05;100.00
6345;BME280;3205;42.666;23.264;2022-12-16T01:41:35;94115.94;;;4.99;100.00
6345;BME280;3205;42.666;23.264;2022-12-16T01:44:15;94111.34;;;5.13;100.00
6345;BME280;3205;42.666;23.264;2022-12-16T01:46:42;94105.03;;;5.14;100.00
6345;BME280;3205;42.666;23.264;2022-12-16T01:49:15;94114.47;;;5.23;100.00
6345;BME280;3205;42.666;23.264;2022-12-16T01:51:46;94118.31;;;5.17;100.00
6345;BME280;3205;42.666;23.264;2022-12-16T01:54:14;94101.66;;;5.22;100.00
6345;BME280;3205;42.666;23.264;2022-12-16T01:56:43;94107.19;;;5.12;100.00
6345;BME280;3205;42.666;23.264;2022-12-16T01:59:12;94097.81;;;5.19;100.00
6345;BME280;3205;42.666;23.264;2022-12-16T02:01:41;94113.69;;;5.23;100.00
6345;BME280;3205;42.666;23.264;2022-12-16T02:04:07;94107.63;;;4.97;100.00
6345;BME280;3205;42.666;23.264;2022-12-16T02:06:33;94090.53;;;5.00;100.00
6345;BME280;3205;42.666;23.264;2022-12-16T02:09:03;94080.53;;;5.10;100.00
6345;BME280;3205;42.666;23.264;2022-12-16T02:11:49;94073.00;;;5.17;100.00
6345;BME280;3205;42.666;23.264;2022-12-16T02:14:49;94080.06;;;5.08;100.00
6345;BME280;3205;42.666;23.264;2022-12-16T02:17:27;94074.66;;;5.05;100.00
6345;BME280;3205;42.666;23.264;2022-12-16T02:20:24;94063.13;;;5.14;100.00
6345;BME280;3205;42.666;23.264;2022-12-16T02:23:16;94082.06;;;5.03;100.00
6345;BME280;3205;42.666;23.264;2022-12-16T02:26:02;94077.13;;;4.93;100.00
6345;BME280;3205;42.666;23.264;2022-12-16T02:28:51;94072.03;;;4.96;100.00
6345;BME280;3205;42.666;23.264;2022-12-16T02:31:29;94084.50;;;4.91;100.00
6345;BME280;3205;42.666;23.264;2022-12-16T02:34:08;94060.75;;;4.87;100.00
6345;BME280;3205;42.666;23.264;2022-12-16T02:36:49;94082.03;;;4.86;100.00
6345;BME280;3205;42.666;23.264;2022-12-16T02:39:21;94085.84;;;4.80;100.00
6345;BME280;3205;42.666;23.264;2022-12-16T02:41:53;94077.50;;;4.69;100.00
6345;BME280;3205;42.666;23.264;2022-12-16T02:44:29;94099.22;;;4.78;100.00
6345;BME280;3205;42.666;23.264;2022-12-16T02:46:59;94106.81;;;4.80;100.00
6345;BME280;3205;42.666;23.264;2022-12-16T02:49:55;94095.91;;;4.95;100.00
6345;BME280;3205;42.666;23.264;2022-12-16T02:52:23;94118.53;;;4.91;100.00
6345;BME280;3205;42.666;23.264;2022-12-16T02:54:53;94114.09;;;4.91;100.00
6345;BME280;3205;42.666;23.264;2022-12-16T03:00:14;94115.44;;;4.89;100.00
6345;BME280;3205;42.666;23.264;2022-12-16T03:02:48;94112.22;;;4.92;100.00
6345;BME280;3205;42.666;23.264;2022-12-16T03:05:21;94114.81;;;4.83;100.00
6345;BME280;3205;42.666;23.264;2022-12-16T03:07:51;94086.47;;;4.85;100.00
6345;BME280;3205;42.666;23.264;2022-12-16T03:10:20;94100.31;;;4.77;100.00
6345;BME280;3205;42.666;23.264;2022-12-16T03:12:50;94088.00;;;4.78;100.00
6345;BME280;3205;42.666;23.264;2022-12-16T03:15:21;94074.91;;;4.78;100.00
6345;BME280;3205;42.666;23.264;2022-12-16T03:17:49;94077.34;;;4.74;100.00
6345;BME280;3205;42.666;23.264;2022-12-16T03:20:21;94076.16;;;4.80;100.00
6345;BME280;3205;42.666;23.264;2022-12-16T03:22:51;94079.06;;;4.70;100.00
6345;BME280;3205;42.666;23.264;2022-12-16T03:25:19;94076.53;;;4.65;100.00
6345;BME280;3205;42.666;23.264;2022-12-16T03:27:50;94074.75;;;4.74;100.00
6345;BME280;3205;42.666;23.264;2022-12-16T03:30:22;94074.31;;;4.81;100.00
6345;BME280;3205;42.666;23.264;2022-12-16T03:32:57;94071.53;;;4.77;100.00
6345;BME280;3205;42.666;23.264;2022-12-16T03:35:27;94062.28;;;4.80;100.00
6345;BME280;3205;42.666;23.264;2022-12-16T03:37:58;94082.56;;;4.66;100.00
6345;BME280;3205;42.666;23.264;2022-12-16T03:40:27;94095.69;;;4.74;100.00
6345;BME280;3205;42.666;23.264;2022-12-16T03:42:54;94096.00;;;4.81;100.00
6345;BME280;3205;42.666;23.264;2022-12-16T03:45:25;94112.06;;;4.88;100.00
6345;BME280;3205;42.666;23.264;2022-12-16T03:47:56;94123.47;;;4.92;100.00
6345;BME280;3205;42.666;23.264;2022-12-16T03:50:26;94107.75;;;4.92;100.00
6345;BME280;3205;42.666;23.264;2022-12-16T03:52:54;94110.19;;;4.89;100.00
6345;BME280;3205;42.666;23.264;2022-12-16T03:55:21;94106.09;;;4.96;100.00
6345;BME280;3205;42.666;23.264;2022-12-16T03:57:47;94114.09;;;5.00;100.00
6345;BME280;3205;42.666;23.264;2022-12-16T04:00:13;94124.75;;;5.03;100.00
6345;BME280;3205;42.666;23.264;2022-12-16T04:02:40;94129.19;;;5.03;100.00
6345;BME280;3205;42.666;23.264;2022-12-16T04:05:08;94122.44;;;5.10;100.00
6345;BME280;3205;42.666;23.264;2022-12-16T04:07:34;94116.31;;;5.14;100.00
6345;BME280;3205;42.666;23.264;2022-12-16T04:10:00;94108.56;;;5.10;100.00
6345;BME280;3205;42.666;23.264;2022-12-16T04:12:27;94120.88;;;5.01;100.00
6345;BME280;3205;42.666;23.264;2022-12-16T04:15:11;94109.91;;;4.90;100.00
6345;BME280;3205;42.666;23.264;2022-12-16T04:17:58;94119.84;;;5.10;100.00
6345;BME280;3205;42.666;23.264;2022-12-16T04:20:44;94113.69;;;5.23;100.00
6345;BME280;3205;42.666;23.264;2022-12-16T04:23:30;94113.69;;;5.23;100.00
6345;BME280;3205;42.666;23.264;2022-12-16T04:26:23;94103.38;;;5.18;100.00
6345;BME280;3205;42.666;23.264;2022-12-16T04:28:49;94103.06;;;5.19;100.00
6345;BME280;3205;42.666;23.264;2022-12-16T04:31:15;94110.91;;;5.11;100.00
6345;BME280;3205;42.666;23.264;2022-12-16T04:33:41;94107.66;;;5.14;100.00
6345;BME280;3205;42.666;23.264;2022-12-16T04:36:26;94119.38;;;5.16;100.00
6345;BME280;3205;42.666;23.264;2022-12-16T04:39:10;94112.41;;;5.12;100.00
6345;BME280;3205;42.666;23.264;2022-12-16T04:41:55;94104.28;;;5.13;100.00
6345;BME280;3205;42.666;23.264;2022-12-16T04:44:39;94093.50;;;5.15;100.00
6345;BME280;3205;42.666;23.264;2022-12-16T04:47:24;94085.94;;;5.22;100.00
6345;BME280;3205;42.666;23.264;2022-12-16T04:50:08;94101.97;;;5.20;100.00
6345;BME280;3205;42.666;23.264;2022-12-16T04:53:02;94083.19;;;5.27;100.00
6345;BME280;3205;42.666;23.264;2022-12-16T04:55:46;94092.41;;;5.16;100.00
6345;BME280;3205;42.666;23.264;2022-12-16T04:58:30;94088.72;;;5.09;100.00
6345;BME280;3205;42.666;23.264;2022-12-16T05:01:15;94084.06;;;5.06;100.00
6345;BME280;3205;42.666;23.264;2022-12-16T05:03:59;94096.84;;;5.07;100.00
6345;BME280;3205;42.666;23.264;2022-12-16T05:06:44;94109.78;;;5.04;100.00
6345;BME280;3205;42.666;23.264;2022-12-16T05:09:29;94105.34;;;5.13;100.00
6345;BME280;3205;42.666;23.264;2022-12-16T05:12:13;94099.31;;;5.12;100.00
6345;BME280;3205;42.666;23.264;2022-12-16T05:14:57;94088.84;;;5.04;100.00
6345;BME280;3205;42.666;23.264;2022-12-16T05:17:41;94098.25;;;5.13;100.00
6345;BME280;3205;42.666;23.264;2022-12-16T05:20:26;94103.03;;;5.11;100.00
6345;BME280;3205;42.666;23.264;2022-12-16T05:23:10;94106.00;;;5.26;100.00
6345;BME280;3205;42.666;23.264;2022-12-16T05:25:55;94107.06;;;5.17;100.00
6345;BME280;3205;42.666;23.264;2022-12-16T05:28:39;94108.91;;;5.16;100.00
6345;BME280;3205;42.666;23.264;2022-12-16T05:31:24;94117.69;;;5.20;100.00
6345;BME280;3205;42.666;23.264;2022-12-16T05:34:08;94140.78;;;5.10;100.00
6345;BME280;3205;42.666;23.264;2022-12-16T05:36:52;94140.16;;;5.13;100.00
6345;BME280;3205;42.666;23.264;2022-12-16T05:39:37;94156.66;;;5.13;100.00
6345;BME280;3205;42.666;23.264;2022-12-16T05:42:22;94142.19;;;5.16;100.00
6345;BME280;3205;42.666;23.264;2022-12-16T05:45:09;94142.03;;;5.21;100.00
6345;BME280;3205;42.666;23.264;2022-12-16T05:47:54;94152.53;;;5.29;100.00
6345;BME280;3205;42.666;23.264;2022-12-16T05:50:38;94141.03;;;5.47;100.00
6345;BME280;3205;42.666;23.264;2022-12-16T05:53:22;94132.84;;;5.49;100.00
6345;BME280;3205;42.666;23.264;2022-12-16T05:56:07;94134.56;;;5.45;100.00
6345;BME280;3205;42.666;23.264;2022-12-16T05:58:52;94156.13;;;5.50;100.00
6345;BME280;3205;42.666;23.264;2022-12-16T06:01:36;94165.84;;;5.50;100.00
6345;BME280;3205;42.666;23.264;2022-12-16T06:04:21;94167.41;;;5.51;100.00
6345;BME280;3205;42.666;23.264;2022-12-16T06:07:05;94180.34;;;5.56;100.00
6345;BME280;3205;42.666;23.264;2022-12-16T06:09:50;94173.56;;;5.63;100.00
6345;BME280;3205;42.666;23.264;2022-12-16T06:12:39;94175.00;;;5.69;100.00
6345;BME280;3205;42.666;23.264;2022-12-16T06:15:24;94188.63;;;5.80;100.00
6345;BME280;3205;42.666;23.264;2022-12-16T06:18:08;94189.38;;;5.80;100.00
6345;BME280;3205;42.666;23.264;2022-12-16T06:20:53;94188.28;;;5.89;100.00
6345;BME280;3205;42.666;23.264;2022-12-16T06:23:37;94183.19;;;6.01;100.00
6345;BME280;3205;42.666;23.264;2022-12-16T06:26:22;94189.41;;;6.05;100.00
6345;BME280;3205;42.666;23.264;2022-12-16T06:29:08;94186.94;;;6.09;100.00
6345;BME280;3205;42.666;23.264;2022-12-16T06:31:53;94174.88;;;6.16;100.00
6345;BME280;3205;42.666;23.264;2022-12-16T06:34:37;94172.09;;;6.04;100.00
6345;BME280;3205;42.666;23.264;2022-12-16T06:37:21;94170.69;;;6.15;100.00
6345;BME280;3205;42.666;23.264;2022-12-16T06:40:07;94172.22;;;6.25;100.00
6345;BME280;3205;42.666;23.264;2022-12-16T06:42:51;94145.22;;;6.24;100.00
6345;BME280;3205;42.666;23.264;2022-12-16T06:45:36;94178.72;;;6.27;100.00
6345;BME280;3205;42.666;23.264;2022-12-16T06:48:21;94163.28;;;6.26;100.00
6345;BME280;3205;42.666;23.264;2022-12-16T06:51:05;94174.84;;;6.25;100.00
6345;BME280;3205;42.666;23.264;2022-12-16T06:53:49;94175.19;;;6.40;100.00
6345;BME280;3205;42.666;23.264;2022-12-16T06:56:33;94167.44;;;6.35;100.00
6345;BME280;3205;42.666;23.264;2022-12-16T06:59:18;94162.63;;;6.46;100.00
6345;BME280;3205;42.666;23.264;2022-12-16T07:02:02;94187.50;;;6.48;100.00
6345;BME280;3205;42.666;23.264;2022-12-16T07:04:47;94184.59;;;6.50;100.00
6345;BME280;3205;42.666;23.264;2022-12-16T07:07:31;94183.97;;;6.36;100.00
6345;BME280;3205;42.666;23.264;2022-12-16T07:10:16;94202.34;;;6.44;100.00
6345;BME280;3205;42.666;23.264;2022-12-16T07:13:01;94191.38;;;6.42;100.00
6345;BME280;3205;42.666;23.264;2022-12-16T07:15:46;94181.63;;;6.34;100.00
6345;BME280;3205;42.666;23.264;2022-12-16T07:18:30;94186.91;;;6.17;100.00
6345;BME280;3205;42.666;23.264;2022-12-16T07:21:15;94186.28;;;6.54;100.00
6345;BME280;3205;42.666;23.264;2022-12-16T07:23:59;94175.56;;;6.67;100.00
6345;BME280;3205;42.666;23.264;2022-12-16T07:26:44;94189.16;;;6.78;100.00
6345;BME280;3205;42.666;23.264;2022-12-16T07:29:29;94185.00;;;6.68;100.00
6345;BME280;3205;42.666;23.264;2022-12-16T07:32:13;94198.06;;;6.85;100.00
6345;BME280;3205;42.666;23.264;2022-12-16T07:34:58;94190.84;;;6.82;100.00
6345;BME280;3205;42.666;23.264;2022-12-16T07:37:43;94201.63;;;6.89;100.00
6345;BME280;3205;42.666;23.264;2022-12-16T07:40:27;94211.53;;;6.84;100.00
6345;BME280;3205;42.666;23.264;2022-12-16T07:43:12;94198.84;;;6.94;100.00
6345;BME280;3205;42.666;23.264;2022-12-16T07:45:56;94200.06;;;6.97;100.00
6345;BME280;3205;42.666;23.264;2022-12-16T07:48:40;94207.66;;;6.98;100.00
6345;BME280;3205;42.666;23.264;2022-12-16T07:51:26;94226.81;;;6.99;100.00
6345;BME280;3205;42.666;23.264;2022-12-16T07:54:11;94200.00;;;7.14;100.00
6345;BME280;3205;42.666;23.264;2022-12-16T07:56:55;94218.56;;;7.09;100.00
6345;BME280;3205;42.666;23.264;2022-12-16T07:59:40;94222.38;;;7.28;100.00
6345;BME280;3205;42.666;23.264;2022-12-16T08:02:24;94210.88;;;7.41;100.00
6345;BME280;3205;42.666;23.264;2022-12-16T08:05:09;94221.81;;;7.51;100.00
6345;BME280;3205;42.666;23.264;2022-12-16T08:07:54;94217.22;;;7.69;100.00
6345;BME280;3205;42.666;23.264;2022-12-16T08:10:40;94227.69;;;7.77;100.00
6345;BME280;3205;42.666;23.264;2022-12-16T08:13:24;94222.44;;;7.77;100.00
6345;BME280;3205;42.666;23.264;2022-12-16T08:16:09;94220.59;;;7.78;100.00
6345;BME280;3205;42.666;23.264;2022-12-16T08:18:53;94219.63;;;7.82;100.00
6345;BME280;3205;42.666;23.264;2022-12-16T08:21:38;94226.78;;;8.02;100.00
6345;BME280;3205;42.666;23.264;2022-12-16T08:24:22;94222.97;;;8.20;100.00
6345;BME280;3205;42.666;23.264;2022-12-16T08:27:07;94225.47;;;8.57;100.00
6345;BME280;3205;42.666;23.264;2022-12-16T08:29:51;94223.22;;;8.47;100.00
6345;BME280;3205;42.666;23.264;2022-12-16T08:32:36;94210.06;;;8.47;100.00
6345;BME280;3205;42.666;23.264;2022-12-16T08:35:20;94239.78;;;8.48;100.00
6345;BME280;3205;42.666;23.264;2022-12-16T08:38:05;94217.88;;;8.35;100.00
6345;BME280;3205;42.666;23.264;2022-12-16T08:40:49;94223.88;;;8.44;100.00
6345;BME280;3205;42.666;23.264;2022-12-16T08:43:34;94204.63;;;8.64;100.00
6345;BME280;3205;42.666;23.264;2022-12-16T08:46:19;94222.47;;;8.79;100.00
6345;BME280;3205;42.666;23.264;2022-12-16T08:49:03;94224.69;;;8.89;100.00
6345;BME280;3205;42.666;23.264;2022-12-16T08:51:48;94197.16;;;8.54;100.00
6345;BME280;3205;42.666;23.264;2022-12-16T08:54:32;94185.00;;;8.74;100.00
6345;BME280;3205;42.666;23.264;2022-12-16T08:57:16;94194.09;;;8.64;100.00
6345;BME280;3205;42.666;23.264;2022-12-16T09:00:03;94195.78;;;8.81;100.00
6345;BME280;3205;42.666;23.264;2022-12-16T09:02:51;94200.94;;;8.77;100.00
6345;BME280;3205;42.666;23.264;2022-12-16T09:05:36;94177.69;;;8.91;100.00
6345;BME280;3205;42.666;23.264;2022-12-16T09:08:31;94170.28;;;9.53;100.00
6345;BME280;3205;42.666;23.264;2022-12-16T09:11:16;94175.75;;;9.83;100.00
6345;BME280;3205;42.666;23.264;2022-12-16T09:14:00;94197.69;;;10.35;100.00
6345;BME280;3205;42.666;23.264;2022-12-16T09:16:45;94184.94;;;10.37;100.00
6345;BME280;3205;42.666;23.264;2022-12-16T09:19:31;94163.25;;;11.02;100.00
6345;BME280;3205;42.666;23.264;2022-12-16T09:22:16;94180.41;;;11.23;100.00
6345;BME280;3205;42.666;23.264;2022-12-16T09:25:00;94184.59;;;11.39;100.00
6345;BME280;3205;42.666;23.264;2022-12-16T09:27:48;94172.66;;;11.30;100.00
6345;BME280;3205;42.666;23.264;2022-12-16T09:30:32;94153.72;;;11.59;100.00
6345;BME280;3205;42.666;23.264;2022-12-16T09:33:17;94175.03;;;11.04;100.00
6345;BME280;3205;42.666;23.264;2022-12-16T09:36:01;94179.16;;;11.48;100.00
6345;BME280;3205;42.666;23.264;2022-12-16T09:38:46;94158.53;;;12.22;100.00
6345;BME280;3205;42.666;23.264;2022-12-16T09:41:41;94175.06;;;12.34;100.00
6345;BME280;3205;42.666;23.264;2022-12-16T09:44:37;94167.31;;;12.07;100.00
6345;BME280;3205;42.666;23.264;2022-12-16T09:47:30;94186.09;;;11.68;100.00
6345;BME280;3205;42.666;23.264;2022-12-16T09:50:22;94168.50;;;11.60;100.00
6345;BME280;3205;42.666;23.264;2022-12-16T09:53:10;94167.13;;;11.35;100.00
6345;BME280;3205;42.666;23.264;2022-12-16T09:55:55;94173.66;;;11.10;100.00
6345;BME280;3205;42.666;23.264;2022-12-16T09:58:45;94172.28;;;11.16;100.00
6345;BME280;3205;42.666;23.264;2022-12-16T10:01:35;94166.56;;;10.99;100.00
6345;BME280;3205;42.666;23.264;2022-12-16T10:04:21;94161.78;;;11.04;100.00
6345;BME280;3205;42.666;23.264;2022-12-16T10:07:09;94157.22;;;11.32;100.00
6345;BME280;3205;42.666;23.264;2022-12-16T10:10:00;94144.38;;;11.03;100.00
6345;BME280;3205;42.666;23.264;2022-12-16T10:12:51;94162.84;;;11.15;100.00
6345;BME280;3205;42.666;23.264;2022-12-16T10:15:44;94172.75;;;10.75;100.00
6345;BME280;3205;42.666;23.264;2022-12-16T10:18:41;94151.34;;;10.37;100.00
6345;BME280;3205;42.666;23.264;2022-12-16T10:21:33;94144.06;;;10.34;100.00
6345;BME280;3205;42.666;23.264;2022-12-16T10:24:29;94135.69;;;10.44;100.00
6345;BME280;3205;42.666;23.264;2022-12-16T10:27:23;94099.25;;;10.65;100.00
6345;BME280;3205;42.666;23.264;2022-12-16T10:30:12;94109.63;;;10.58;100.00
6345;BME280;3205;42.666;23.264;2022-12-16T10:32:58;94098.63;;;10.56;100.00
6345;BME280;3205;42.666;23.264;2022-12-16T10:35:46;94073.50;;;10.78;100.00
6345;BME280;3205;42.666;23.264;2022-12-16T10:38:35;94083.13;;;10.86;100.00
6345;BME280;3205;42.666;23.264;2022-12-16T10:41:24;94097.03;;;10.83;100.00
6345;BME280;3205;42.666;23.264;2022-12-16T10:44:18;94101.97;;;10.84;100.00
6345;BME280;3205;42.666;23.264;2022-12-16T10:47:04;94089.50;;;10.54;100.00
6345;BME280;3205;42.666;23.264;2022-12-16T10:49:50;94103.00;;;10.64;100.00
6345;BME280;3205;42.666;23.264;2022-12-16T10:52:43;94107.38;;;10.88;100.00
6345;BME280;3205;42.666;23.264;2022-12-16T10:55:34;94099.03;;;11.01;100.00
6345;BME280;3205;42.666;23.264;2022-12-16T10:58:31;94104.56;;;11.11;100.00
6345;BME280;3205;42.666;23.264;2022-12-16T11:01:21;94116.25;;;11.10;100.00
6345;BME280;3205;42.666;23.264;2022-12-16T11:04:30;94114.09;;;11.01;100.00
6345;BME280;3205;42.666;23.264;2022-12-16T11:07:23;94116.16;;;11.07;100.00
6345;BME280;3205;42.666;23.264;2022-12-16T11:10:29;94114.28;;;11.23;100.00
6345;BME280;3205;42.666;23.264;2022-12-16T11:13:21;94113.94;;;11.55;100.00
6345;BME280;3205;42.666;23.264;2022-12-16T11:16:10;94115.28;;;11.49;100.00
6345;BME280;3205;42.666;23.264;2022-12-16T11:18:55;94113.56;;;11.72;100.00
6345;BME280;3205;42.666;23.264;2022-12-16T11:21:40;94101.91;;;11.92;100.00
6345;BME280;3205;42.666;23.264;2022-12-16T11:24:24;94102.38;;;11.97;100.00
6345;BME280;3205;42.666;23.264;2022-12-16T11:27:20;94098.97;;;11.97;100.00
6345;BME280;3205;42.666;23.264;2022-12-16T11:30:15;94105.50;;;11.84;100.00
6345;BME280;3205;42.666;23.264;2022-12-16T11:33:08;94104.94;;;11.94;100.00
6345;BME280;3205;42.666;23.264;2022-12-16T11:36:02;94105.72;;;11.94;100.00
6345;BME280;3205;42.666;23.264;2022-12-16T11:38:49;94081.97;;;11.98;100.00
6345;BME280;3205;42.666;23.264;2022-12-16T11:41:37;94089.78;;;12.10;100.00
6345;BME280;3205;42.666;23.264;2022-12-16T11:44:26;94071.16;;;12.06;100.00
6345;BME280;3205;42.666;23.264;2022-12-16T11:47:19;94072.75;;;12.11;100.00
6345;BME280;3205;42.666;23.264;2022-12-16T11:50:10;94076.31;;;12.18;100.00
6345;BME280;3205;42.666;23.264;2022-12-16T11:52:58;94068.22;;;12.11;100.00
6345;BME280;3205;42.666;23.264;2022-12-16T11:55:47;94068.16;;;12.08;100.00
6345;BME280;3205;42.666;23.264;2022-12-16T11:58:36;94062.59;;;12.13;100.00
6345;BME280;3205;42.666;23.264;2022-12-16T12:01:30;94065.31;;;12.16;100.00
6345;BME280;3205;42.666;23.264;2022-12-16T12:04:15;94055.69;;;12.08;100.00
6345;BME280;3205;42.666;23.264;2022-12-16T12:07:17;94066.28;;;12.27;100.00
6345;BME280;3205;42.666;23.264;2022-12-16T12:10:13;94059.16;;;12.50;100.00
6345;BME280;3205;42.666;23.264;2022-12-16T12:13:06;94053.97;;;12.38;100.00
6345;BME280;3205;42.666;23.264;2022-12-16T12:15:57;94060.03;;;12.57;100.00
6345;BME280;3205;42.666;23.264;2022-12-16T12:18:48;94045.81;;;12.47;100.00
6345;BME280;3205;42.666;23.264;2022-12-16T12:21:40;94048.06;;;12.45;100.00
6345;BME280;3205;42.666;23.264;2022-12-16T12:24:33;94042.16;;;12.55;100.00
6345;BME280;3205;42.666;23.264;2022-12-16T12:27:26;94049.34;;;12.54;100.00
6345;BME280;3205;42.666;23.264;2022-12-16T12:30:15;94053.66;;;12.62;100.00
6345;BME280;3205;42.666;23.264;2022-12-16T12:33:15;94020.44;;;12.68;100.00
6345;BME280;3205;42.666;23.264;2022-12-16T12:36:08;94035.06;;;12.81;100.00
6345;BME280;3205;42.666;23.264;2022-12-16T12:39:03;94031.53;;;12.73;100.00
6345;BME280;3205;42.666;23.264;2022-12-16T12:42:05;94033.47;;;12.76;100.00
6345;BME280;3205;42.666;23.264;2022-12-16T12:44:59;94044.38;;;12.71;100.00
6345;BME280;3205;42.666;23.264;2022-12-16T12:47:54;94035.53;;;12.86;100.00
6345;BME280;3205;42.666;23.264;2022-12-16T12:50:45;94031.25;;;13.01;100.00
6345;BME280;3205;42.666;23.264;2022-12-16T12:53:41;94035.22;;;13.14;100.00
6345;BME280;3205;42.666;23.264;2022-12-16T12:56:37;94037.91;;;12.91;100.00
6345;BME280;3205;42.666;23.264;2022-12-16T12:59:28;94042.53;;;12.94;100.00
6345;BME280;3205;42.666;23.264;2022-12-16T13:02:19;94035.44;;;13.02;100.00
6345;BME280;3205;42.666;23.264;2022-12-16T13:05:05;94035.34;;;13.21;100.00
6345;BME280;3205;42.666;23.264;2022-12-16T13:08:29;94048.50;;;13.14;100.00
6345;BME280;3205;42.666;23.264;2022-12-16T13:11:11;94030.28;;;13.12;100.00
6345;BME280;3205;42.666;23.264;2022-12-16T13:13:55;94020.56;;;12.97;100.00
6345;BME280;3205;42.666;23.264;2022-12-16T13:17:04;94033.69;;;13.13;100.00
6345;BME280;3205;42.666;23.264;2022-12-16T13:19:53;94039.97;;;13.01;100.00
6345;BME280;3205;42.666;23.264;2022-12-16T13:22:39;94027.66;;;12.90;100.00
6345;BME280;3205;42.666;23.264;2022-12-16T13:25:37;94015.94;;;12.91;100.00
6345;BME280;3205;42.666;23.264;2022-12-16T13:28:25;94030.09;;;12.79;100.00
6345;BME280;3205;42.666;23.264;2022-12-16T13:31:12;94012.03;;;12.85;100.00
6345;BME280;3205;42.666;23.264;2022-12-16T13:34:02;94003.09;;;12.74;100.00
6345;BME280;3205;42.666;23.264;2022-12-16T13:36:53;94027.41;;;12.76;100.00
6345;BME280;3205;42.666;23.264;2022-12-16T13:39:40;94021.66;;;12.74;100.00
6345;BME280;3205;42.666;23.264;2022-12-16T13:42:51;94024.81;;;12.57;100.00
6345;BME280;3205;42.666;23.264;2022-12-16T13:45:39;94019.72;;;12.49;100.00
6345;BME280;3205;42.666;23.264;2022-12-16T13:48:36;94038.38;;;12.33;100.00
6345;BME280;3205;42.666;23.264;2022-12-16T13:54:58;94016.00;;;12.12;100.00
6345;BME280;3205;42.666;23.264;2022-12-16T13:57:45;94041.34;;;12.09;100.00
6345;BME280;3205;42.666;23.264;2022-12-16T14:00:38;94040.84;;;12.04;100.00
6345;BME280;3205;42.666;23.264;2022-12-16T14:03:35;94037.38;;;12.00;100.00
6345;BME280;3205;42.666;23.264;2022-12-16T14:06:23;94029.34;;;11.96;100.00
6345;BME280;3205;42.666;23.264;2022-12-16T14:09:22;94045.56;;;11.95;100.00
6345;BME280;3205;42.666;23.264;2022-12-16T14:12:15;94048.94;;;11.92;100.00
6345;BME280;3205;42.666;23.264;2022-12-16T14:15:10;94034.06;;;11.87;100.00
6345;BME280;3205;42.666;23.264;2022-12-16T14:18:04;94040.47;;;11.86;100.00
6345;BME280;3205;42.666;23.264;2022-12-16T14:20:54;94044.38;;;11.74;100.00
6345;BME280;3205;42.666;23.264;2022-12-16T14:23:46;94051.41;;;11.66;100.00
6345;BME280;3205;42.666;23.264;2022-12-16T14:26:34;94046.81;;;11.63;100.00
6345;BME280;3205;42.666;23.264;2022-12-16T14:29:22;94044.94;;;11.48;100.00
6345;BME280;3205;42.666;23.264;2022-12-16T14:32:18;94039.00;;;11.51;100.00
6345;BME280;3205;42.666;23.264;2022-12-16T14:35:06;94017.31;;;11.30;100.00